sensor_id;sensor_type;location;lat;lon;timestamp;P1;durP1;ratioP1;P2;durP2;ratioP2
45322;SDS011;31382;50.200;8.674;2022-11-15T00:04:22;17.08;;;10.48;;
45322;SDS011;31382;50.200;8.674;2022-11-15T00:09:24;17.00;;;10.75;;
45322;SDS011;31382;50.200;8.674;2022-11-15T00:14:25;18.42;;;11.07;;
45322;SDS011;31382;50.200;8.674;2022-11-15T00:19:26;17.00;;;10.98;;
45322;SDS011;31382;50.200;8.674;2022-11-15T00:24:28;21.63;;;11.68;;
45322;SDS011;31382;50.200;8.674;2022-11-15T00:29:29;16.73;;;10.38;;
45322;SDS011;31382;50.200;8.674;2022-11-15T00:34:30;21.08;;;11.65;;
45322;SDS011;31382;50.200;8.674;2022-11-15T00:39:32;18.52;;;11.32;;
45322;SDS011;31382;50.200;8.674;2022-11-15T00:44:33;18.63;;;11.13;;
45322;SDS011;31382;50.200;8.674;2022-11-15T00:49:35;18.40;;;10.93;;
45322;SDS011;31382;50.200;8.674;2022-11-15T00:54:36;22.25;;;12.30;;
45322;SDS011;31382;50.200;8.674;2022-11-15T00:59:37;20.10;;;12.82;;
45322;SDS011;31382;50.200;8.674;2022-11-15T01:04:39;20.23;;;13.05;;
45322;SDS011;31382;50.200;8.674;2022-11-15T01:09:40;21.55;;;12.70;;
45322;SDS011;31382;50.200;8.674;2022-11-15T01:14:41;21.33;;;12.88;;
45322;SDS011;31382;50.200;8.674;2022-11-15T01:19:43;19.05;;;12.60;;
45322;SDS011;31382;50.200;8.674;2022-11-15T01:24:44;21.70;;;12.00;;
45322;SDS011;31382;50.200;8.674;2022-11-15T01:29:46;16.98;;;11.82;;
45322;SDS011;31382;50.200;8.674;2022-11-15T01:34:47;14.00;;;9.18;;
45322;SDS011;31382;50.200;8.674;2022-11-15T01:39:48;16.17;;;9.70;;
45322;SDS011;31382;50.200;8.674;2022-11-15T01:44:50;27.42;;;15.32;;
45322;SDS011;31382;50.200;8.674;2022-11-15T01:49:55;22.45;;;13.25;;
45322;SDS011;31382;50.200;8.674;2022-11-15T01:55:08;25.65;;;13.88;;
45322;SDS011;31382;50.200;8.674;2022-11-15T02:00:12;17.33;;;11.40;;
45322;SDS011;31382;50.200;8.674;2022-11-15T02:05:14;19.95;;;11.45;;
45322;SDS011;31382;50.200;8.674;2022-11-15T02:10:20;17.30;;;11.82;;
45322;SDS011;31382;50.200;8.674;2022-11-15T02:15:24;22.15;;;11.38;;
45322;SDS011;31382;50.200;8.674;2022-11-15T02:31:28;21.25;;;11.25;;
45322;SDS011;31382;50.200;8.674;2022-11-15T02:36:40;20.13;;;12.25;;
45322;SDS011;31382;50.200;8.674;2022-11-15T02:46:59;17.27;;;12.55;;
45322;SDS011;31382;50.200;8.674;2022-11-15T02:52:18;15.63;;;9.95;;
45322;SDS011;31382;50.200;8.674;2022-11-15T02:58:14;19.33;;;9.55;;
45322;SDS011;31382;50.200;8.674;2022-11-15T03:03:08;14.63;;;9.20;;
45322;SDS011;31382;50.200;8.674;2022-11-15T03:08:31;12.13;;;7.70;;
45322;SDS011;31382;50.200;8.674;2022-11-15T03:18:47;12.77;;;8.13;;
45322;SDS011;31382;50.200;8.674;2022-11-15T03:23:54;14.15;;;8.55;;
45322;SDS011;31382;50.200;8.674;2022-11-15T03:29:01;11.50;;;7.35;;
45322;SDS011;31382;50.200;8.674;2022-11-15T03:34:07;11.05;;;7.50;;
45322;SDS011;31382;50.200;8.674;2022-11-15T03:39:14;11.30;;;7.15;;
45322;SDS011;31382;50.200;8.674;2022-11-15T03:44:38;15.40;;;8.43;;
45322;SDS011;31382;50.200;8.674;2022-11-15T03:49:46;15.52;;;7.93;;
45322;SDS011;31382;50.200;8.674;2022-11-15T03:54:54;12.18;;;8.27;;
45322;SDS011;31382;50.200;8.674;2022-11-15T03:59:57;13.25;;;8.35;;
45322;SDS011;31382;50.200;8.674;2022-11-15T04:04:58;12.15;;;7.88;;
45322;SDS011;31382;50.200;8.674;2022-11-15T04:10:00;20.42;;;7.75;;
45322;SDS011;31382;50.200;8.674;2022-11-15T04:15:05;14.55;;;7.90;;
45322;SDS011;31382;50.200;8.674;2022-11-15T04:20:18;13.63;;;7.18;;
45322;SDS011;31382;50.200;8.674;2022-11-15T04:25:49;12.00;;;6.72;;
45322;SDS011;31382;50.200;8.674;2022-11-15T04:30:55;11.32;;;7.22;;
45322;SDS011;31382;50.200;8.674;2022-11-15T04:35:56;11.77;;;7.22;;
45322;SDS011;31382;50.200;8.674;2022-11-15T04:41:16;11.52;;;7.03;;
45322;SDS011;31382;50.200;8.674;2022-11-15T04:46:17;13.05;;;7.30;;
45322;SDS011;31382;50.200;8.674;2022-11-15T04:51:19;13.52;;;7.03;;
45322;SDS011;31382;50.200;8.674;2022-11-15T04:56:21;11.45;;;7.88;;
45322;SDS011;31382;50.200;8.674;2022-11-15T05:01:22;12.63;;;7.72;;
45322;SDS011;31382;50.200;8.674;2022-11-15T05:06:24;10.90;;;7.50;;
45322;SDS011;31382;50.200;8.674;2022-11-15T05:11:25;14.70;;;7.15;;
45322;SDS011;31382;50.200;8.674;2022-11-15T05:16:28;13.63;;;7.63;;
45322;SDS011;31382;50.200;8.674;2022-11-15T05:21:29;14.07;;;8.27;;
45322;SDS011;31382;50.200;8.674;2022-11-15T05:26:31;9.80;;;7.75;;
45322;SDS011;31382;50.200;8.674;2022-11-15T05:31:33;12.95;;;7.88;;
45322;SDS011;31382;50.200;8.674;2022-11-15T05:36:36;10.20;;;7.22;;
45322;SDS011;31382;50.200;8.674;2022-11-15T05:41:44;10.85;;;6.80;;
45322;SDS011;31382;50.200;8.674;2022-11-15T05:46:50;9.02;;;6.57;;
45322;SDS011;31382;50.200;8.674;2022-11-15T05:51:54;11.98;;;7.00;;
45322;SDS011;31382;50.200;8.674;2022-11-15T05:56:56;11.60;;;7.30;;
45322;SDS011;31382;50.200;8.674;2022-11-15T06:02:04;10.05;;;6.38;;
45322;SDS011;31382;50.200;8.674;2022-11-15T06:07:06;8.85;;;6.05;;
45322;SDS011;31382;50.200;8.674;2022-11-15T06:12:07;10.10;;;6.68;;
45322;SDS011;31382;50.200;8.674;2022-11-15T06:17:08;9.77;;;6.45;;
45322;SDS011;31382;50.200;8.674;2022-11-15T06:22:11;12.05;;;6.13;;
45322;SDS011;31382;50.200;8.674;2022-11-15T06:27:13;10.18;;;5.78;;
45322;SDS011;31382;50.200;8.674;2022-11-15T06:32:14;11.10;;;5.80;;
45322;SDS011;31382;50.200;8.674;2022-11-15T06:37:15;8.57;;;6.15;;
45322;SDS011;31382;50.200;8.674;2022-11-15T06:42:17;10.82;;;5.72;;
45322;SDS011;31382;50.200;8.674;2022-11-15T06:47:18;11.07;;;6.25;;
45322;SDS011;31382;50.200;8.674;2022-11-15T06:52:19;12.95;;;6.90;;
45322;SDS011;31382;50.200;8.674;2022-11-15T06:57:22;15.45;;;7.60;;
45322;SDS011;31382;50.200;8.674;2022-11-15T07:02:24;13.05;;;6.80;;
45322;SDS011;31382;50.200;8.674;2022-11-15T07:07:25;13.55;;;7.60;;
45322;SDS011;31382;50.200;8.674;2022-11-15T07:12:26;11.23;;;6.18;;
45322;SDS011;31382;50.200;8.674;2022-11-15T07:17:28;11.98;;;6.72;;
45322;SDS011;31382;50.200;8.674;2022-11-15T07:22:29;10.27;;;5.32;;
45322;SDS011;31382;50.200;8.674;2022-11-15T07:27:31;14.30;;;6.13;;
45322;SDS011;31382;50.200;8.674;2022-11-15T07:32:32;10.60;;;5.63;;
45322;SDS011;31382;50.200;8.674;2022-11-15T07:37:33;8.57;;;5.80;;
45322;SDS011;31382;50.200;8.674;2022-11-15T07:42:35;7.05;;;5.10;;
45322;SDS011;31382;50.200;8.674;2022-11-15T07:47:55;10.30;;;5.55;;
45322;SDS011;31382;50.200;8.674;2022-11-15T07:52:57;10.32;;;5.45;;
45322;SDS011;31382;50.200;8.674;2022-11-15T07:58:03;11.25;;;5.63;;
45322;SDS011;31382;50.200;8.674;2022-11-15T08:03:07;9.23;;;4.78;;
45322;SDS011;31382;50.200;8.674;2022-11-15T08:08:13;7.45;;;4.88;;
45322;SDS011;31382;50.200;8.674;2022-11-15T08:13:15;6.13;;;3.88;;
45322;SDS011;31382;50.200;8.674;2022-11-15T08:18:17;9.73;;;4.35;;
45322;SDS011;31382;50.200;8.674;2022-11-15T08:23:18;12.35;;;4.28;;
45322;SDS011;31382;50.200;8.674;2022-11-15T08:28:19;10.25;;;4.97;;
45322;SDS011;31382;50.200;8.674;2022-11-15T08:33:22;11.02;;;4.65;;
45322;SDS011;31382;50.200;8.674;2022-11-15T08:38:23;8.52;;;4.43;;
45322;SDS011;31382;50.200;8.674;2022-11-15T08:43:25;7.72;;;3.47;;
45322;SDS011;31382;50.200;8.674;2022-11-15T08:48:26;9.18;;;3.60;;
45322;SDS011;31382;50.200;8.674;2022-11-15T08:53:27;7.47;;;3.92;;
45322;SDS011;31382;50.200;8.674;2022-11-15T08:58:29;8.48;;;4.30;;
45322;SDS011;31382;50.200;8.674;2022-11-15T09:03:31;16.55;;;4.75;;
45322;SDS011;31382;50.200;8.674;2022-11-15T09:08:32;9.00;;;3.67;;
45322;SDS011;31382;50.200;8.674;2022-11-15T09:13:49;9.18;;;3.78;;
45322;SDS011;31382;50.200;8.674;2022-11-15T09:18:50;8.95;;;4.20;;
45322;SDS011;31382;50.200;8.674;2022-11-15T09:23:53;7.28;;;3.95;;
45322;SDS011;31382;50.200;8.674;2022-11-15T09:28:54;8.90;;;4.47;;
45322;SDS011;31382;50.200;8.674;2022-11-15T09:33:56;8.85;;;5.45;;
45322;SDS011;31382;50.200;8.674;2022-11-15T09:38:57;11.55;;;4.45;;
45322;SDS011;31382;50.200;8.674;2022-11-15T09:44:07;8.73;;;4.53;;
45322;SDS011;31382;50.200;8.674;2022-11-15T09:49:13;7.60;;;4.65;;
45322;SDS011;31382;50.200;8.674;2022-11-15T09:54:33;6.40;;;4.32;;
45322;SDS011;31382;50.200;8.674;2022-11-15T10:05:23;6.80;;;4.53;;
45322;SDS011;31382;50.200;8.674;2022-11-15T10:10:28;8.35;;;5.28;;
45322;SDS011;31382;50.200;8.674;2022-11-15T10:15:36;11.95;;;5.13;;
45322;SDS011;31382;50.200;8.674;2022-11-15T10:20:49;11.63;;;4.97;;
45322;SDS011;31382;50.200;8.674;2022-11-15T10:25:57;10.70;;;5.07;;
45322;SDS011;31382;50.200;8.674;2022-11-15T10:31:26;14.32;;;6.95;;
45322;SDS011;31382;50.200;8.674;2022-11-15T10:36:29;9.40;;;5.45;;
45322;SDS011;31382;50.200;8.674;2022-11-15T10:41:32;11.38;;;6.13;;
45322;SDS011;31382;50.200;8.674;2022-11-15T10:46:38;9.73;;;4.37;;
45322;SDS011;31382;50.200;8.674;2022-11-15T10:51:49;9.23;;;4.35;;
45322;SDS011;31382;50.200;8.674;2022-11-15T10:56:54;11.48;;;4.95;;
45322;SDS011;31382;50.200;8.674;2022-11-15T11:01:59;13.23;;;5.47;;
45322;SDS011;31382;50.200;8.674;2022-11-15T11:07:01;8.20;;;4.15;;
45322;SDS011;31382;50.200;8.674;2022-11-15T11:12:03;10.63;;;3.97;;
45322;SDS011;31382;50.200;8.674;2022-11-15T11:22:32;8.57;;;3.58;;
45322;SDS011;31382;50.200;8.674;2022-11-15T11:27:42;29.65;;;6.35;;
45322;SDS011;31382;50.200;8.674;2022-11-15T11:33:13;10.30;;;3.78;;
45322;SDS011;31382;50.200;8.674;2022-11-15T11:49:23;17.85;;;4.28;;
45322;SDS011;31382;50.200;8.674;2022-11-15T12:00:03;12.48;;;5.03;;
45322;SDS011;31382;50.200;8.674;2022-11-15T12:10:46;11.90;;;3.53;;
45322;SDS011;31382;50.200;8.674;2022-11-15T12:15:59;19.10;;;3.85;;
45322;SDS011;31382;50.200;8.674;2022-11-15T12:21:19;12.97;;;3.27;;
45322;SDS011;31382;50.200;8.674;2022-11-15T12:26:46;7.40;;;2.63;;
45322;SDS011;31382;50.200;8.674;2022-11-15T12:31:52;25.35;;;4.30;;
45322;SDS011;31382;50.200;8.674;2022-11-15T12:36:57;30.02;;;6.35;;
45322;SDS011;31382;50.200;8.674;2022-11-15T12:47:02;6.40;;;2.42;;
45322;SDS011;31382;50.200;8.674;2022-11-15T12:52:09;19.88;;;3.75;;
45322;SDS011;31382;50.200;8.674;2022-11-15T13:17:46;4.53;;;2.47;;
45322;SDS011;31382;50.200;8.674;2022-11-15T13:22:53;14.73;;;3.20;;
45322;SDS011;31382;50.200;8.674;2022-11-15T13:28:00;8.77;;;2.90;;
45322;SDS011;31382;50.200;8.674;2022-11-15T13:33:19;4.65;;;2.42;;
45322;SDS011;31382;50.200;8.674;2022-11-15T13:38:36;7.65;;;2.30;;
45322;SDS011;31382;50.200;8.674;2022-11-15T13:43:39;11.57;;;3.53;;
45322;SDS011;31382;50.200;8.674;2022-11-15T13:48:41;7.45;;;3.00;;
45322;SDS011;31382;50.200;8.674;2022-11-15T13:53:45;6.10;;;2.78;;
45322;SDS011;31382;50.200;8.674;2022-11-15T13:58:51;7.93;;;4.55;;
45322;SDS011;31382;50.200;8.674;2022-11-15T14:03:57;7.45;;;2.92;;
45322;SDS011;31382;50.200;8.674;2022-11-15T14:14:13;4.57;;;2.92;;
45322;SDS011;31382;50.200;8.674;2022-11-15T14:24:21;7.38;;;2.65;;
45322;SDS011;31382;50.200;8.674;2022-11-15T14:29:26;7.85;;;2.90;;
45322;SDS011;31382;50.200;8.674;2022-11-15T14:34:31;6.05;;;2.58;;
45322;SDS011;31382;50.200;8.674;2022-11-15T14:39:33;9.30;;;3.60;;
45322;SDS011;31382;50.200;8.674;2022-11-15T14:44:34;7.35;;;3.63;;
45322;SDS011;31382;50.200;8.674;2022-11-15T14:49:35;9.40;;;4.60;;
45322;SDS011;31382;50.200;8.674;2022-11-15T14:54:37;10.65;;;5.10;;
45322;SDS011;31382;50.200;8.674;2022-11-15T14:59:38;6.70;;;3.13;;
45322;SDS011;31382;50.200;8.674;2022-11-15T15:04:39;5.22;;;3.00;;
45322;SDS011;31382;50.200;8.674;2022-11-15T15:09:41;8.98;;;4.13;;
45322;SDS011;31382;50.200;8.674;2022-11-15T15:14:44;9.02;;;3.97;;
45322;SDS011;31382;50.200;8.674;2022-11-15T15:19:46;4.50;;;2.92;;
45322;SDS011;31382;50.200;8.674;2022-11-15T15:24:47;5.82;;;3.70;;
45322;SDS011;31382;50.200;8.674;2022-11-15T15:29:49;6.00;;;3.60;;
45322;SDS011;31382;50.200;8.674;2022-11-15T15:34:50;12.82;;;6.20;;
45322;SDS011;31382;50.200;8.674;2022-11-15T15:39:52;41.38;;;7.18;;
45322;SDS011;31382;50.200;8.674;2022-11-15T15:44:57;15.38;;;6.63;;
45322;SDS011;31382;50.200;8.674;2022-11-15T15:49:58;10.63;;;6.30;;
45322;SDS011;31382;50.200;8.674;2022-11-15T15:54:59;15.05;;;6.72;;
45322;SDS011;31382;50.200;8.674;2022-11-15T16:00:02;8.60;;;4.85;;
45322;SDS011;31382;50.200;8.674;2022-11-15T16:05:05;10.48;;;5.97;;
45322;SDS011;31382;50.200;8.674;2022-11-15T16:10:20;9.30;;;5.97;;
45322;SDS011;31382;50.200;8.674;2022-11-15T16:15:27;13.43;;;5.68;;
45322;SDS011;31382;50.200;8.674;2022-11-15T16:25:47;9.77;;;6.72;;
45322;SDS011;31382;50.200;8.674;2022-11-15T16:30:58;12.80;;;7.00;;
45322;SDS011;31382;50.200;8.674;2022-11-15T16:41:31;25.02;;;12.63;;
45322;SDS011;31382;50.200;8.674;2022-11-15T16:46:32;16.08;;;10.50;;
45322;SDS011;31382;50.200;8.674;2022-11-15T16:51:34;14.90;;;10.15;;
45322;SDS011;31382;50.200;8.674;2022-11-15T16:56:35;12.75;;;8.85;;
45322;SDS011;31382;50.200;8.674;2022-11-15T17:01:37;12.93;;;8.20;;
45322;SDS011;31382;50.200;8.674;2022-11-15T17:06:47;17.00;;;8.50;;
45322;SDS011;31382;50.200;8.674;2022-11-15T17:11:49;15.07;;;7.78;;
45322;SDS011;31382;50.200;8.674;2022-11-15T17:16:51;16.40;;;9.63;;
45322;SDS011;31382;50.200;8.674;2022-11-15T17:21:54;15.93;;;9.73;;
45322;SDS011;31382;50.200;8.674;2022-11-15T17:26:56;14.07;;;7.68;;
45322;SDS011;31382;50.200;8.674;2022-11-15T17:31:57;14.93;;;8.40;;
45322;SDS011;31382;50.200;8.674;2022-11-15T17:36:58;10.88;;;7.05;;
45322;SDS011;31382;50.200;8.674;2022-11-15T17:42:00;13.82;;;8.45;;
45322;SDS011;31382;50.200;8.674;2022-11-15T17:47:01;13.10;;;8.02;;
45322;SDS011;31382;50.200;8.674;2022-11-15T17:52:03;20.58;;;11.65;;
45322;SDS011;31382;50.200;8.674;2022-11-15T17:57:04;15.88;;;9.50;;
45322;SDS011;31382;50.200;8.674;2022-11-15T18:02:05;12.77;;;6.65;;
45322;SDS011;31382;50.200;8.674;2022-11-15T18:07:07;13.35;;;7.90;;
45322;SDS011;31382;50.200;8.674;2022-11-15T18:12:09;10.80;;;6.53;;
45322;SDS011;31382;50.200;8.674;2022-11-15T18:17:11;15.45;;;7.05;;
45322;SDS011;31382;50.200;8.674;2022-11-15T18:22:12;9.25;;;6.60;;
45322;SDS011;31382;50.200;8.674;2022-11-15T18:27:14;14.00;;;7.22;;
45322;SDS011;31382;50.200;8.674;2022-11-15T18:32:15;11.80;;;7.53;;
45322;SDS011;31382;50.200;8.674;2022-11-15T18:37:17;12.95;;;8.60;;
45322;SDS011;31382;50.200;8.674;2022-11-15T18:42:19;16.13;;;10.00;;
45322;SDS011;31382;50.200;8.674;2022-11-15T18:47:20;16.20;;;10.02;;
45322;SDS011;31382;50.200;8.674;2022-11-15T18:52:21;12.63;;;7.50;;
45322;SDS011;31382;50.200;8.674;2022-11-15T18:57:23;13.90;;;7.80;;
45322;SDS011;31382;50.200;8.674;2022-11-15T19:02:24;10.90;;;8.30;;
45322;SDS011;31382;50.200;8.674;2022-11-15T19:07:26;14.23;;;8.68;;
45322;SDS011;31382;50.200;8.674;2022-11-15T19:12:27;10.90;;;6.40;;
45322;SDS011;31382;50.200;8.674;2022-11-15T19:17:28;15.93;;;8.73;;
45322;SDS011;31382;50.200;8.674;2022-11-15T19:22:30;10.00;;;6.55;;
45322;SDS011;31382;50.200;8.674;2022-11-15T19:27:31;17.92;;;10.27;;
45322;SDS011;31382;50.200;8.674;2022-11-15T19:32:38;15.67;;;8.03;;
45322;SDS011;31382;50.200;8.674;2022-11-15T19:37:40;12.55;;;6.72;;
45322;SDS011;31382;50.200;8.674;2022-11-15T19:42:41;10.80;;;6.70;;
45322;SDS011;31382;50.200;8.674;2022-11-15T19:47:42;13.20;;;5.75;;
45322;SDS011;31382;50.200;8.674;2022-11-15T19:52:44;16.88;;;8.63;;
45322;SDS011;31382;50.200;8.674;2022-11-15T19:57:45;20.63;;;13.25;;
45322;SDS011;31382;50.200;8.674;2022-11-15T20:02:47;25.05;;;15.07;;
45322;SDS011;31382;50.200;8.674;2022-11-15T20:07:48;26.77;;;13.35;;
45322;SDS011;31382;50.200;8.674;2022-11-15T20:12:50;14.38;;;9.43;;
45322;SDS011;31382;50.200;8.674;2022-11-15T20:17:51;19.50;;;11.77;;
45322;SDS011;31382;50.200;8.674;2022-11-15T20:22:52;17.38;;;10.75;;
45322;SDS011;31382;50.200;8.674;2022-11-15T20:27:54;19.38;;;11.63;;
45322;SDS011;31382;50.200;8.674;2022-11-15T20:32:55;14.95;;;8.57;;
45322;SDS011;31382;50.200;8.674;2022-11-15T20:37:57;14.45;;;8.32;;
45322;SDS011;31382;50.200;8.674;2022-11-15T20:42:58;20.48;;;10.15;;
45322;SDS011;31382;50.200;8.674;2022-11-15T20:47:59;26.77;;;12.77;;
45322;SDS011;31382;50.200;8.674;2022-11-15T20:53:01;17.10;;;10.48;;
45322;SDS011;31382;50.200;8.674;2022-11-15T20:58:02;15.40;;;9.30;;
45322;SDS011;31382;50.200;8.674;2022-11-15T21:03:04;16.23;;;9.20;;
45322;SDS011;31382;50.200;8.674;2022-11-15T21:08:09;15.55;;;7.95;;
45322;SDS011;31382;50.200;8.674;2022-11-15T21:13:11;13.05;;;8.63;;
45322;SDS011;31382;50.200;8.674;2022-11-15T21:18:13;12.23;;;8.30;;
45322;SDS011;31382;50.200;8.674;2022-11-15T21:23:15;14.82;;;10.02;;
45322;SDS011;31382;50.200;8.674;2022-11-15T21:28:16;17.30;;;10.18;;
45322;SDS011;31382;50.200;8.674;2022-11-15T21:33:18;14.55;;;9.18;;
45322;SDS011;31382;50.200;8.674;2022-11-15T21:38:19;12.70;;;7.30;;
45322;SDS011;31382;50.200;8.674;2022-11-15T21:43:23;12.60;;;7.03;;
45322;SDS011;31382;50.200;8.674;2022-11-15T21:48:25;13.95;;;7.05;;
45322;SDS011;31382;50.200;8.674;2022-11-15T21:53:28;10.57;;;6.38;;
45322;SDS011;31382;50.200;8.674;2022-11-15T21:58:30;10.10;;;6.60;;
45322;SDS011;31382;50.200;8.674;2022-11-15T22:03:32;14.45;;;7.20;;
45322;SDS011;31382;50.200;8.674;2022-11-15T22:08:33;13.98;;;6.72;;
45322;SDS011;31382;50.200;8.674;2022-11-15T22:13:35;12.45;;;7.63;;
45322;SDS011;31382;50.200;8.674;2022-11-15T22:18:37;18.35;;;10.70;;
45322;SDS011;31382;50.200;8.674;2022-11-15T22:23:39;21.38;;;11.88;;
45322;SDS011;31382;50.200;8.674;2022-11-15T22:28:41;14.63;;;9.05;;
45322;SDS011;31382;50.200;8.674;2022-11-15T22:33:43;14.13;;;7.70;;
45322;SDS011;31382;50.200;8.674;2022-11-15T22:38:45;12.43;;;6.47;;
45322;SDS011;31382;50.200;8.674;2022-11-15T22:43:46;14.98;;;7.72;;
45322;SDS011;31382;50.200;8.674;2022-11-15T22:48:48;14.32;;;6.68;;
45322;SDS011;31382;50.200;8.674;2022-11-15T22:53:49;9.30;;;5.88;;
45322;SDS011;31382;50.200;8.674;2022-11-15T22:58:51;10.20;;;6.35;;
45322;SDS011;31382;50.200;8.674;2022-11-15T23:03:52;16.92;;;9.27;;
45322;SDS011;31382;50.200;8.674;2022-11-15T23:08:54;14.23;;;7.93;;
45322;SDS011;31382;50.200;8.674;2022-11-15T23:13:55;15.50;;;7.75;;
45322;SDS011;31382;50.200;8.674;2022-11-15T23:18:57;18.95;;;8.20;;
45322;SDS011;31382;50.200;8.674;2022-11-15T23:24:00;18.38;;;7.30;;
45322;SDS011;31382;50.200;8.674;2022-11-15T23:29:01;12.00;;;6.68;;
45322;SDS011;31382;50.200;8.674;2022-11-15T23:34:03;11.25;;;7.10;;
45322;SDS011;31382;50.200;8.674;2022-11-15T23:39:05;11.95;;;6.75;;
45322;SDS011;31382;50.200;8.674;2022-11-15T23:44:06;11.23;;;6.32;;
45322;SDS011;31382;50.200;8.674;2022-11-15T23:49:08;14.10;;;6.50;;
45322;SDS011;31382;50.200;8.674;2022-11-15T23:54:10;12.15;;;7.00;;
45322;SDS011;31382;50.200;8.674;2022-11-15T23:59:11;13.68;;;7.63;;
